Time;durP1;ratioP1;P1;durP2;ratioP2;P2;SDS_P1;SDS_P2;PMS_P1;PMS_P2;Temp;Humidity;BMP_temperature;BMP_pressure;BME280_temperature;BME280_humidity;BME280_pressure;Samples;Min_cycle;Max_cycle;Signal;HPM_P1;HPM_P2
2021/08/02 00:01:07;;;;;;;4.10;3.73;;;22.00;99.90;;;;;;5136636;27;20414;-71
2021/08/02 00:03:39;;;;;;;4.67;4.27;;;22.00;99.90;;;;;;5117614;27;20407;-70
2021/08/02 00:06:08;;;;;;;4.20;3.70;;;21.90;99.90;;;;;;5136021;27;20411;-67
2021/08/02 00:08:34;;;;;;;4.30;3.90;;;21.80;99.90;;;;;;5135831;27;20522;-71
2021/08/02 00:11:00;;;;;;;5.43;3.33;;;21.80;99.90;;;;;;5136245;27;20430;-70
2021/08/02 00:13:30;;;;;;;4.20;3.57;;;21.70;99.90;;;;;;5135912;27;20399;-67
2021/08/02 00:15:59;;;;;;;5.27;3.87;;;21.70;99.90;;;;;;5136400;27;20439;-67
2021/08/02 00:18:27;;;;;;;4.60;4.17;;;21.70;99.90;;;;;;5135918;27;20765;-71
2021/08/02 00:20:54;;;;;;;3.60;3.30;;;21.70;99.90;;;;;;5136190;27;20426;-67
2021/08/02 00:23:20;;;;;;;4.03;3.63;;;21.60;99.90;;;;;;5135661;27;20399;-70
2021/08/02 00:25:47;;;;;;;3.83;3.43;;;21.60;99.90;;;;;;5135988;27;20427;-67
2021/08/02 00:28:13;;;;;;;4.33;3.90;;;21.60;99.90;;;;;;5116987;27;20479;-71
2021/08/02 00:30:39;;;;;;;4.23;3.83;;;21.60;99.90;;;;;;5117319;27;20974;-71
2021/08/02 00:33:08;;;;;;;4.37;3.97;;;21.60;99.90;;;;;;5117079;27;20396;-67
2021/08/02 00:35:41;;;;;;;4.17;3.77;;;21.60;99.90;;;;;;5135301;27;20194;-71
2021/08/02 00:38:24;;;;;;;4.40;4.00;;;21.60;99.90;;;;;;5134904;27;20391;-71
2021/08/02 00:41:35;;;;;;;3.50;3.20;;;21.60;99.90;;;;;;5135854;27;20439;-67
2021/08/02 00:44:27;;;;;;;4.67;4.27;;;21.60;99.90;;;;;;5135161;27;20538;-71
2021/08/02 00:46:59;;;;;;;4.23;3.80;;;21.60;99.90;;;;;;5089639;27;20450;-69
2021/08/02 00:49:26;;;;;;;4.20;3.80;;;21.60;99.90;;;;;;5135339;27;20463;-71
2021/08/02 00:51:55;;;;;;;6.50;4.37;;;21.60;99.90;;;;;;5135193;27;20396;-67
2021/08/02 00:54:22;;;;;;;4.83;3.80;;;21.60;99.90;;;;;;5135227;27;20491;-67
2021/08/02 00:56:51;;;;;;;3.90;3.60;;;21.60;99.90;;;;;;5135123;27;20410;-71
2021/08/02 00:59:17;;;;;;;4.37;3.97;;;21.60;99.90;;;;;;5135101;27;20868;-70
2021/08/02 01:01:44;;;;;;;4.30;3.90;;;21.60;99.90;;;;;;5116565;27;20442;-71
2021/08/02 01:04:12;;;;;;;5.13;4.47;;;21.50;99.90;;;;;;5134992;27;20241;-71
2021/08/02 01:06:39;;;;;;;5.67;4.40;;;21.50;99.90;;;;;;5135072;27;20399;-67
2021/08/02 01:09:06;;;;;;;5.30;4.50;;;21.50;99.90;;;;;;5134653;27;20514;-67
2021/08/02 01:11:33;;;;;;;4.77;4.33;;;21.50;99.90;;;;;;5116555;27;20411;-67
2021/08/02 01:14:04;;;;;;;4.37;3.97;;;21.40;99.90;;;;;;5134815;27;20781;-71
2021/08/02 01:16:32;;;;;;;4.27;3.73;;;21.40;99.90;;;;;;5116494;28;20458;-67
2021/08/02 01:18:58;;;;;;;4.20;3.90;;;21.40;99.90;;;;;;5116230;28;20423;-71
2021/08/02 01:21:25;;;;;;;4.00;3.70;;;21.30;99.90;;;;;;5116374;28;20411;-71
2021/08/02 01:23:51;;;;;;;4.83;4.10;;;21.30;99.90;;;;;;5134605;27;20424;-66
2021/08/02 01:26:42;;;;;;;5.03;4.57;;;21.30;99.90;;;;;;5134957;27;20437;-67
2021/08/02 01:29:45;;;;;;;5.10;3.90;;;21.30;99.90;;;;;;5134323;27;20474;-67
2021/08/02 01:32:11;;;;;;;3.87;3.57;;;21.20;99.90;;;;;;5116198;28;20793;-71
2021/08/02 01:34:37;;;;;;;3.93;3.63;;;21.20;99.90;;;;;;5116274;28;20450;-71
2021/08/02 01:37:03;;;;;;;5.03;3.80;;;21.20;99.90;;;;;;5134615;28;20499;-71
2021/08/02 01:39:28;;;;;;;4.57;3.97;;;21.20;99.90;;;;;;5134661;27;20774;-71
2021/08/02 01:41:54;;;;;;;5.30;4.50;;;21.20;99.90;;;;;;5134517;28;20395;-69
2021/08/02 01:44:19;;;;;;;4.87;4.10;;;21.20;99.90;;;;;;5134453;27;20687;-67
2021/08/02 01:46:57;;;;;;;4.33;3.97;;;21.10;99.90;;;;;;5134623;28;20171;-68
2021/08/02 01:49:31;;;;;;;7.53;3.87;;;21.10;99.90;;;;;;5135807;27;20407;-67
2021/08/02 01:51:58;;;;;;;4.17;3.87;;;21.10;99.90;;;;;;5138743;27;20390;-71
2021/08/02 01:54:58;;;;;;;4.50;3.63;;;21.00;99.90;;;;;;5120100;27;20447;-67
2021/08/02 01:57:45;;;;;;;3.70;3.40;;;21.00;99.90;;;;;;5099161;27;20512;-71
2021/08/02 02:00:14;;;;;;;3.93;3.60;;;21.00;99.90;;;;;;5119932;27;20457;-67
2021/08/02 02:02:44;;;;;;;3.73;3.40;;;21.00;99.90;;;;;;5138402;27;20399;-67
2021/08/02 02:05:18;;;;;;;4.03;3.60;;;21.00;99.90;;;;;;5138705;27;20435;-66
2021/08/02 02:07:53;;;;;;;4.20;3.80;;;21.00;99.90;;;;;;5138410;27;20779;-71
2021/08/02 02:10:21;;;;;;;4.33;3.93;;;21.00;99.90;;;;;;5138316;27;20444;-71
2021/08/02 02:12:49;;;;;;;4.10;3.70;;;20.90;99.90;;;;;;5138258;27;20402;-71
2021/08/02 02:15:16;;;;;;;3.80;3.50;;;20.90;99.90;;;;;;5138512;27;20445;-71
2021/08/02 02:17:43;;;;;;;3.63;3.33;;;20.90;99.90;;;;;;5138258;27;20399;-67
2021/08/02 02:20:10;;;;;;;3.70;3.37;;;20.90;99.90;;;;;;5138380;27;20442;-67
2021/08/02 02:22:37;;;;;;;4.80;3.90;;;20.80;99.90;;;;;;5119704;27;20414;-70
2021/08/02 02:25:04;;;;;;;4.30;3.90;;;20.80;99.90;;;;;;5137925;27;20504;-71
2021/08/02 02:27:30;;;;;;;4.10;3.70;;;20.80;99.90;;;;;;5115935;28;20482;-70
2021/08/02 02:29:56;;;;;;;3.97;3.57;;;20.90;99.90;;;;;;5117557;28;20454;-71
2021/08/02 02:32:24;;;;;;;4.73;3.87;;;20.90;99.90;;;;;;5133276;27;20404;-68
2021/08/02 02:34:51;;;;;;;3.90;3.60;;;20.90;99.90;;;;;;5117386;28;20471;-67
2021/08/02 02:37:24;;;;;;;4.20;3.60;;;21.00;99.90;;;;;;5117205;28;20483;-67
2021/08/02 02:39:50;;;;;;;3.77;3.37;;;21.10;99.90;;;;;;5133155;27;20475;-70
2021/08/02 02:42:17;;;;;;;4.20;3.40;;;21.20;99.90;;;;;;5133147;27;20916;-71
2021/08/02 02:44:43;;;;;;;4.77;3.57;;;21.20;99.90;;;;;;5132909;27;20463;-67
2021/08/02 02:47:08;;;;;;;4.07;3.77;;;21.20;99.90;;;;;;5116957;28;20404;-71
2021/08/02 02:49:36;;;;;;;3.77;3.27;;;21.30;99.90;;;;;;5116235;28;20195;-71
2021/08/02 02:52:03;;;;;;;4.00;3.50;;;21.40;99.90;;;;;;5115173;28;20754;-72
2021/08/02 02:54:29;;;;;;;4.90;3.00;;;21.40;99.90;;;;;;5115685;28;20857;-67
2021/08/02 02:56:56;;;;;;;3.83;3.20;;;21.50;99.90;;;;;;5114383;28;20421;-67
2021/08/02 02:59:21;;;;;;;3.70;3.40;;;21.50;99.90;;;;;;5115076;28;20195;-71
2021/08/02 03:01:49;;;;;;;4.27;3.63;;;21.60;99.90;;;;;;5114984;28;20400;-67
2021/08/02 03:04:17;;;;;;;4.13;3.20;;;21.60;99.90;;;;;;5115763;28;20271;-69
2021/08/02 03:06:44;;;;;;;4.27;3.37;;;21.60;99.90;;;;;;5115701;28;20758;-67
2021/08/02 03:09:13;;;;;;;4.43;4.00;;;21.70;99.90;;;;;;5115887;28;20479;-67
2021/08/02 03:11:40;;;;;;;12.77;8.37;;;21.70;99.90;;;;;;5115962;28;20396;-71
2021/08/02 03:14:05;;;;;;;3.83;3.40;;;21.80;99.90;;;;;;5132276;27;20447;-68
2021/08/02 03:16:32;;;;;;;3.80;3.50;;;21.90;99.90;;;;;;5132412;27;20400;-67
2021/08/02 03:18:58;;;;;;;3.47;3.17;;;21.90;99.90;;;;;;5116386;28;20554;-67
2021/08/02 03:21:24;;;;;;;3.83;3.20;;;21.90;99.90;;;;;;5116529;28;20495;-71
2021/08/02 03:24:15;;;;;;;2.93;2.70;;;22.00;99.90;;;;;;5116256;28;20678;-69
2021/08/02 03:32:53;;;;;;;3.03;2.80;;;22.00;99.90;;;;;;5153386;27;20425;-67
2021/08/02 03:35:18;;;;;;;3.03;2.80;;;22.00;99.90;;;;;;5153148;27;20434;-66
2021/08/02 03:37:45;;;;;;;2.90;2.53;;;22.10;99.90;;;;;;5153063;27;20918;-67
2021/08/02 03:40:14;;;;;;;2.73;2.53;;;22.10;99.90;;;;;;5152525;27;20198;-67
2021/08/02 03:42:41;;;;;;;4.40;3.00;;;22.10;99.90;;;;;;5134088;27;20930;-67
2021/08/02 03:45:08;;;;;;;3.00;2.80;;;22.10;99.90;;;;;;5152497;27;20415;-67
2021/08/02 03:47:34;;;;;;;3.07;2.77;;;22.10;99.90;;;;;;5152751;27;20822;-71
2021/08/02 03:50:00;;;;;;;3.13;2.83;;;22.10;99.90;;;;;;5133704;27;20425;-67
2021/08/02 03:52:26;;;;;;;3.50;3.20;;;22.10;99.90;;;;;;5152434;27;20406;-67
2021/08/02 03:54:51;;;;;;;3.37;3.07;;;22.10;99.90;;;;;;5152185;27;20190;-71
2021/08/02 03:57:18;;;;;;;3.60;3.30;;;22.10;99.90;;;;;;5152335;27;20635;-67
2021/08/02 03:59:46;;;;;;;9.43;3.20;;;22.20;99.90;;;;;;5152152;27;20195;-71
2021/08/02 04:02:12;;;;;;;3.93;3.50;;;22.20;99.90;;;;;;5152109;27;20501;-69
2021/08/02 04:04:37;;;;;;;2.60;2.40;;;22.20;99.90;;;;;;5133634;27;20520;-67
2021/08/02 04:07:03;;;;;;;2.97;2.73;;;22.20;99.90;;;;;;5151589;27;20544;-71
2021/08/02 04:09:29;;;;;;;3.03;2.83;;;22.20;99.90;;;;;;5133490;27;20195;-67
2021/08/02 04:11:55;;;;;;;3.90;3.60;;;22.20;99.90;;;;;;5151434;27;20427;-67
2021/08/02 04:14:20;;;;;;;3.47;3.03;;;22.20;99.90;;;;;;5150987;27;20722;-67
2021/08/02 04:16:46;;;;;;;4.33;2.77;;;22.20;99.90;;;;;;5151618;27;20187;-67
2021/08/02 04:19:11;;;;;;;4.20;2.80;;;22.30;99.90;;;;;;5151383;27;20206;-67
2021/08/02 04:21:37;;;;;;;3.20;2.87;;;22.30;99.90;;;;;;5150791;27;20702;-71
2021/08/02 04:24:03;;;;;;;3.20;2.90;;;22.30;99.90;;;;;;5132819;27;20563;-67
2021/08/02 04:26:29;;;;;;;4.90;2.97;;;22.30;99.90;;;;;;5150821;27;20183;-67
2021/08/02 04:28:57;;;;;;;5.27;3.03;;;22.30;99.90;;;;;;5151180;27;20458;-67
2021/08/02 04:31:29;;;;;;;3.87;2.90;;;22.30;99.90;;;;;;5147893;27;20175;-68
2021/08/02 04:33:55;;;;;;;3.53;3.00;;;22.30;99.90;;;;;;5150595;27;20430;-67
2021/08/02 04:36:21;;;;;;;3.27;3.03;;;22.40;99.90;;;;;;5150691;27;20429;-67
2021/08/02 04:38:47;;;;;;;3.87;3.53;;;22.30;99.90;;;;;;5144172;27;20399;-71
2021/08/02 04:41:13;;;;;;;4.20;3.80;;;22.40;99.90;;;;;;5136503;27;20411;-71
2021/08/02 04:43:39;;;;;;;4.17;3.63;;;22.40;99.90;;;;;;5137974;27;20172;-67
2021/08/02 04:46:04;;;;;;;3.73;3.37;;;22.40;99.90;;;;;;5125647;27;20176;-71
2021/08/02 04:48:30;;;;;;;5.03;4.63;;;22.40;99.90;;;;;;5137988;27;20466;-71
2021/08/02 04:50:56;;;;;;;4.37;3.80;;;22.50;99.90;;;;;;5137981;27;20656;-71
2021/08/02 04:53:21;;;;;;;5.30;3.60;;;22.50;99.90;;;;;;5116674;27;20236;-71
2021/08/02 04:55:47;;;;;;;3.87;3.50;;;22.60;99.90;;;;;;5135625;27;20203;-67
2021/08/02 04:58:13;;;;;;;5.10;3.17;;;22.70;99.90;;;;;;5133514;27;20201;-71
2021/08/02 05:00:38;;;;;;;5.23;3.63;;;22.70;99.90;;;;;;5110233;27;20244;-67
2021/08/02 05:03:04;;;;;;;3.13;2.83;;;22.70;99.90;;;;;;5111851;28;20175;-67
2021/08/02 05:05:30;;;;;;;3.87;3.10;;;22.70;99.90;;;;;;5134007;27;20565;-71
2021/08/02 05:07:55;;;;;;;3.57;3.27;;;22.80;99.90;;;;;;5103168;28;20248;-71
2021/08/02 05:10:21;;;;;;;4.80;3.60;;;22.80;99.90;;;;;;5135139;27;20224;-71
2021/08/02 05:12:49;;;;;;;4.60;3.13;;;22.70;99.90;;;;;;5128564;27;20528;-71
2021/08/02 05:15:15;;;;;;;3.50;3.20;;;22.70;99.90;;;;;;5117341;27;20698;-71
2021/08/02 05:17:41;;;;;;;3.30;3.00;;;22.70;99.90;;;;;;5115506;27;20465;-71
2021/08/02 05:20:07;;;;;;;4.93;2.93;;;22.60;99.90;;;;;;5134667;27;20415;-67
2021/08/02 05:22:33;;;;;;;3.70;3.40;;;22.70;99.90;;;;;;5126336;27;20183;-72
2021/08/02 05:24:59;;;;;;;3.57;3.27;;;22.70;99.90;;;;;;5134467;27;20411;-71
2021/08/02 05:27:25;;;;;;;4.73;3.83;;;22.80;99.90;;;;;;5111713;28;20891;-67
2021/08/02 05:29:51;;;;;;;3.70;3.10;;;22.80;99.90;;;;;;5115377;28;20519;-71
2021/08/02 05:32:17;;;;;;;3.80;3.40;;;22.80;99.90;;;;;;5114021;28;20185;-70
2021/08/02 05:34:45;;;;;;;4.10;3.70;;;22.80;99.90;;;;;;5115326;27;20552;-71
2021/08/02 05:37:12;;;;;;;4.00;3.70;;;22.90;99.90;;;;;;5096193;28;20264;-71
2021/08/02 05:39:38;;;;;;;3.80;3.37;;;22.90;99.90;;;;;;5107915;28;20471;-72
2021/08/02 05:42:05;;;;;;;3.40;3.10;;;22.90;99.90;;;;;;5106086;28;20441;-68
2021/08/02 05:44:31;;;;;;;4.07;3.60;;;22.90;99.90;;;;;;5112888;28;20439;-67
2021/08/02 05:46:57;;;;;;;3.37;3.07;;;23.00;99.90;;;;;;5114719;28;20551;-67
2021/08/02 05:49:22;;;;;;;3.63;3.33;;;23.00;99.90;;;;;;5111221;28;20446;-66
2021/08/02 05:51:53;;;;;;;4.93;4.43;;;23.00;99.90;;;;;;5111743;28;20259;-71
2021/08/02 05:54:19;;;;;;;21.03;12.60;;;23.00;99.90;;;;;;5112119;28;20192;-67
2021/08/02 05:56:48;;;;;;;5.17;4.67;;;23.00;99.90;;;;;;5112636;28;20580;-68
2021/08/02 05:59:13;;;;;;;4.50;3.40;;;23.10;99.90;;;;;;5105062;28;20618;-67
2021/08/02 06:01:39;;;;;;;3.07;2.87;;;23.10;99.90;;;;;;5103465;28;20472;-67
2021/08/02 06:04:04;;;;;;;3.03;2.67;;;23.20;99.90;;;;;;5122344;27;20201;-67
2021/08/02 06:06:30;;;;;;;3.30;3.00;;;23.20;99.90;;;;;;5111740;28;20293;-67
2021/08/02 06:08:56;;;;;;;2.80;2.60;;;23.20;99.90;;;;;;5114567;28;20201;-67
2021/08/02 06:11:21;;;;;;;3.37;2.50;;;23.30;99.90;;;;;;5110478;27;20204;-72
2021/08/02 06:13:48;;;;;;;3.20;2.90;;;23.30;99.90;;;;;;5108911;28;20185;-72
2021/08/02 06:16:20;;;;;;;3.20;2.63;;;23.40;99.90;;;;;;5127076;27;20197;-72
2021/08/02 06:18:45;;;;;;;2.90;2.60;;;23.40;99.90;;;;;;5120402;27;20425;-71
2021/08/02 06:21:11;;;;;;;3.50;2.60;;;23.40;99.90;;;;;;5111130;28;21036;-69
2021/08/02 06:23:37;;;;;;;2.60;2.40;;;23.50;99.90;;;;;;5127655;27;20191;-66
2021/08/02 06:26:02;;;;;;;3.70;2.90;;;23.50;99.90;;;;;;5112970;28;20173;-67
2021/08/02 06:28:28;;;;;;;4.17;2.73;;;23.60;99.90;;;;;;5129806;27;20239;-72
2021/08/02 06:30:54;;;;;;;4.00;2.40;;;23.60;99.90;;;;;;5134629;27;20452;-69
2021/08/02 06:33:20;;;;;;;2.93;2.63;;;23.60;99.90;;;;;;5131820;27;20189;-68
2021/08/02 06:35:46;;;;;;;4.43;2.70;;;23.60;99.90;;;;;;5135278;27;20224;-73
2021/08/02 06:38:11;;;;;;;9.30;2.93;;;23.50;99.90;;;;;;5115121;27;20429;-65
2021/08/02 06:40:37;;;;;;;3.13;2.83;;;23.60;99.90;;;;;;5134059;27;20236;-69
2021/08/02 06:43:03;;;;;;;3.77;2.80;;;23.60;99.90;;;;;;5131697;27;20177;-70
2021/08/02 06:45:28;;;;;;;3.40;3.10;;;23.60;99.90;;;;;;5131768;27;20200;-70
2021/08/02 06:47:56;;;;;;;2.57;2.37;;;23.60;99.90;;;;;;5126835;27;20636;-70
2021/08/02 06:50:23;;;;;;;2.50;2.30;;;23.70;99.90;;;;;;5129230;27;20188;-66
2021/08/02 06:52:50;;;;;;;2.50;2.10;;;23.70;99.90;;;;;;5113596;27;20461;-70
2021/08/02 06:55:18;;;;;;;2.87;2.60;;;23.80;99.90;;;;;;5110851;27;20503;-70
2021/08/02 06:57:44;;;;;;;2.87;2.67;;;23.90;99.90;;;;;;5114086;27;20421;-65
2021/08/02 07:00:10;;;;;;;3.60;2.73;;;23.90;99.90;;;;;;5130770;27;20784;-66
2021/08/02 07:02:36;;;;;;;2.40;2.20;;;23.90;99.90;;;;;;5124391;27;20212;-66
2021/08/02 07:05:01;;;;;;;2.60;2.40;;;24.00;99.90;;;;;;5127913;27;20434;-65
2021/08/02 07:07:27;;;;;;;4.43;3.37;;;24.00;99.90;;;;;;5105394;27;20312;-65
2021/08/02 07:09:52;;;;;;;3.30;2.53;;;24.00;99.90;;;;;;5125376;27;20211;-70
2021/08/02 07:12:18;;;;;;;2.67;2.47;;;24.00;99.90;;;;;;5122322;27;20264;-65
2021/08/02 07:14:44;;;;;;;4.70;2.50;;;24.10;99.90;;;;;;5120707;27;20202;-68
2021/08/02 07:17:09;;;;;;;3.37;2.60;;;24.20;99.90;;;;;;5114860;27;22826;-71
2021/08/02 07:19:35;;;;;;;2.43;2.23;;;24.20;99.90;;;;;;5115983;27;20204;-66
2021/08/02 07:22:01;;;;;;;2.60;2.03;;;24.20;99.90;;;;;;5118676;27;20201;-66
2021/08/02 07:24:26;;;;;;;2.57;2.17;;;24.30;99.90;;;;;;5122786;27;20203;-67
2021/08/02 07:26:52;;;;;;;2.50;2.30;;;24.40;99.90;;;;;;5120767;28;20237;-72
2021/08/02 07:29:18;;;;;;;2.90;2.67;;;24.40;99.90;;;;;;5104740;28;20230;-72
2021/08/02 07:31:43;;;;;;;2.53;2.30;;;24.40;99.90;;;;;;5102726;28;20193;-72
2021/08/02 07:34:09;;;;;;;2.80;2.50;;;24.40;99.90;;;;;;5121966;28;20270;-67
2021/08/02 07:36:34;;;;;;;3.37;2.23;;;24.50;99.90;;;;;;5119638;28;20174;-67
2021/08/02 07:39:00;;;;;;;2.70;2.20;;;24.50;99.90;;;;;;5120344;27;20586;-67
2021/08/02 07:41:26;;;;;;;2.77;2.30;;;24.60;99.90;;;;;;5125025;28;20206;-72
2021/08/02 07:43:52;;;;;;;3.13;2.70;;;24.60;99.90;;;;;;5122755;27;20201;-72
2021/08/02 07:46:17;;;;;;;3.03;2.73;;;24.70;99.90;;;;;;5120976;28;20451;-67
2021/08/02 07:48:43;;;;;;;3.03;2.73;;;24.70;99.90;;;;;;5105185;28;20259;-72
2021/08/02 07:51:10;;;;;;;2.60;2.37;;;24.70;99.90;;;;;;5109465;28;20177;-67
2021/08/02 07:53:35;;;;;;;3.00;2.53;;;24.80;99.90;;;;;;5122106;28;20185;-67
2021/08/02 07:56:01;;;;;;;2.73;2.50;;;24.90;99.90;;;;;;5125241;28;20417;-67
2021/08/02 07:58:26;;;;;;;3.00;2.50;;;24.90;99.90;;;;;;5122590;28;20190;-67
2021/08/02 08:00:52;;;;;;;2.83;2.63;;;24.90;99.90;;;;;;5121488;28;20610;-67
2021/08/02 08:03:19;;;;;;;2.80;2.53;;;24.90;99.90;;;;;;5126029;28;20711;-70
2021/08/02 08:05:46;;;;;;;2.53;2.33;;;25.00;99.90;;;;;;5120293;27;20537;-73
2021/08/02 08:08:11;;;;;;;2.70;2.50;;;25.00;99.90;;;;;;5103412;28;20470;-72
2021/08/02 08:10:37;;;;;;;2.40;2.20;;;25.10;99.90;;;;;;5098353;28;20533;-66
2021/08/02 08:13:03;;;;;;;2.80;2.60;;;25.20;99.90;;;;;;5126707;27;20227;-65
2021/08/02 08:15:28;;;;;;;2.43;2.23;;;25.20;99.90;;;;;;5125055;27;20222;-71
2021/08/02 08:17:54;;;;;;;2.43;2.23;;;25.30;99.90;;;;;;5130682;27;20698;-70
2021/08/02 08:20:22;;;;;;;3.17;2.43;;;25.40;99.90;;;;;;5103483;27;20293;-65
2021/08/02 08:22:48;;;;;;;2.30;2.10;;;25.40;99.90;;;;;;5127344;27;20445;-66
2021/08/02 08:25:14;;;;;;;2.70;2.50;;;25.50;99.90;;;;;;5128779;27;20588;-65
2021/08/02 08:27:40;;;;;;;3.03;2.67;;;25.60;99.90;;;;;;5102620;27;21873;-65
2021/08/02 08:30:08;;;;;;;2.20;2.03;;;25.60;99.90;;;;;;5120769;27;20204;-70
2021/08/02 08:32:34;;;;;;;2.50;2.30;;;25.60;99.90;;;;;;5121397;27;20183;-71
2021/08/02 08:35:00;;;;;;;2.60;2.30;;;25.70;99.90;;;;;;5123595;27;20462;-70
2021/08/02 08:37:26;;;;;;;2.13;2.03;;;25.70;99.90;;;;;;5122553;27;20802;-69
2021/08/02 08:39:51;;;;;;;2.57;2.37;;;25.80;99.90;;;;;;5126173;27;20199;-71
2021/08/02 08:42:17;;;;;;;2.70;2.50;;;25.80;99.90;;;;;;5105078;27;20203;-71
2021/08/02 08:44:43;;;;;;;2.67;2.47;;;25.90;99.90;;;;;;5122053;27;20225;-71
2021/08/02 08:47:11;;;;;;;2.40;2.20;;;25.90;99.90;;;;;;5113863;27;20836;-71
2021/08/02 08:49:38;;;;;;;4.80;2.37;;;26.00;99.90;;;;;;5127751;27;20195;-72
2021/08/02 08:52:04;;;;;;;2.20;2.10;;;26.10;99.90;;;;;;5129482;27;20511;-66
2021/08/02 08:54:33;;;;;;;2.50;2.30;;;26.20;99.90;;;;;;5134202;27;20938;-72
2021/08/02 08:56:59;;;;;;;2.67;2.47;;;26.20;99.90;;;;;;5130029;27;20462;-67
2021/08/02 08:59:25;;;;;;;2.17;2.03;;;26.20;99.90;;;;;;5130481;27;20451;-66
2021/08/02 09:02:04;;;;;;;4.30;2.30;;;26.30;99.90;;;;;;5128240;27;20561;-67
2021/08/02 09:04:31;;;;;;;2.30;2.20;;;26.40;99.90;;;;;;5104477;27;20203;-66
2021/08/02 09:07:04;;;;;;;6.40;2.03;;;26.50;99.90;;;;;;5107982;27;20455;-72
2021/08/02 09:09:35;;;;;;;2.10;1.90;;;26.50;99.90;;;;;;5126213;27;20814;-67
2021/08/02 09:12:16;;;;;;;2.60;2.40;;;26.60;99.90;;;;;;5126408;27;20427;-73
2021/08/02 09:14:54;;;;;;;2.43;2.13;;;26.60;99.90;;;;;;5129593;27;20446;-71
2021/08/02 09:17:37;;;;;;;2.37;2.17;;;26.70;99.90;;;;;;5128866;27;20438;-67
2021/08/02 09:20:21;;;;;;;2.70;2.50;;;26.70;99.90;;;;;;5128893;27;20461;-72
2021/08/02 09:22:47;;;;;;;2.50;2.30;;;26.80;99.90;;;;;;5111754;27;21023;-71
2021/08/02 09:25:21;;;;;;;3.13;2.33;;;26.80;99.90;;;;;;5104635;27;20536;-71
2021/08/02 09:27:48;;;;;;;3.23;2.93;;;26.90;99.90;;;;;;5123942;27;20485;-71
2021/08/02 09:30:13;;;;;;;3.23;1.93;;;27.00;99.90;;;;;;5121939;27;20493;-72
2021/08/02 09:33:22;;;;;;;2.43;2.23;;;27.10;99.90;;;;;;5128429;27;20462;-73
2021/08/02 09:35:49;;;;;;;1.80;1.70;;;27.10;99.90;;;;;;5106699;27;20471;-68
2021/08/02 09:38:16;;;;;;;3.70;2.13;;;27.20;99.90;;;;;;5124307;27;20443;-68
2021/08/02 09:40:47;;;;;;;2.10;2.00;;;27.20;99.90;;;;;;5119719;27;20454;-71
2021/08/02 09:43:19;;;;;;;1.80;1.70;;;27.20;99.90;;;;;;5107900;27;20451;-67
2021/08/02 09:45:54;;;;;;;3.47;2.13;;;27.20;99.90;;;;;;5125153;27;20453;-67
2021/08/02 09:48:21;;;;;;;2.10;1.97;;;27.30;99.90;;;;;;5123967;27;21071;-67
2021/08/02 09:50:50;;;;;;;2.13;1.93;;;27.30;99.90;;;;;;5106113;27;20501;-71
2021/08/02 09:53:18;;;;;;;2.40;2.20;;;27.30;99.90;;;;;;5096267;27;20438;-72
2021/08/02 09:55:45;;;;;;;3.67;2.60;;;27.30;99.90;;;;;;5125417;27;20432;-72
2021/08/02 09:58:15;;;;;;;2.33;2.13;;;27.30;99.90;;;;;;5126293;27;20835;-67
2021/08/02 10:00:41;;;;;;;2.73;2.40;;;27.30;99.90;;;;;;5124088;27;20438;-73
2021/08/02 10:06:34;;;;;;;2.33;2.13;;;27.30;98.80;;;;;;5108274;27;21083;-67
2021/08/02 10:10:41;;;;;;;2.70;2.50;;;27.30;99.90;;;;;;5113560;27;20691;-67
2021/08/02 10:13:07;;;;;;;2.07;1.87;;;27.30;99.90;;;;;;5109254;28;20895;-67
2021/08/02 10:15:33;;;;;;;2.73;2.03;;;27.30;99.90;;;;;;5110918;27;20241;-71
2021/08/02 10:18:05;;;;;;;2.40;2.23;;;27.30;99.90;;;;;;5129035;27;20186;-67
2021/08/02 10:20:33;;;;;;;1.90;1.80;;;27.40;99.90;;;;;;5109385;28;20471;-72
2021/08/02 10:23:00;;;;;;;1.90;1.80;;;27.50;98.30;;;;;;5104847;28;20830;-71
2021/08/02 10:25:41;;;;;;;1.80;1.70;;;27.50;99.10;;;;;;5112671;27;20449;-67
2021/08/02 10:28:12;;;;;;;2.17;1.67;;;27.50;99.90;;;;;;5107409;28;20944;-71
2021/08/02 10:30:38;;;;;;;1.97;1.80;;;27.60;99.90;;;;;;5114769;27;20603;-71
2021/08/02 10:33:04;;;;;;;3.03;2.00;;;27.60;99.90;;;;;;5097893;28;20446;-72
2021/08/02 10:35:45;;;;;;;1.93;1.83;;;27.60;99.90;;;;;;5108163;28;20543;-71
2021/08/02 10:38:14;;;;;;;4.03;2.03;;;27.60;99.90;;;;;;5110745;28;20176;-71
2021/08/02 10:40:57;;;;;;;2.43;2.23;;;27.70;99.90;;;;;;5111244;27;20447;-71
2021/08/02 10:43:32;;;;;;;2.00;1.90;;;27.70;99.90;;;;;;5099042;28;20443;-66
2021/08/02 10:45:59;;;;;;;3.07;2.43;;;27.70;99.90;;;;;;5103918;28;20435;-72
2021/08/02 10:48:27;;;;;;;2.13;2.03;;;27.80;98.80;;;;;;5113039;28;20432;-67
2021/08/02 10:50:52;;;;;;;2.10;1.90;;;27.80;99.80;;;;;;5105296;28;21012;-71
2021/08/02 10:53:19;;;;;;;2.20;2.00;;;27.90;98.50;;;;;;5107742;28;20453;-71
2021/08/02 10:55:52;;;;;;;1.50;1.40;;;27.90;99.20;;;;;;5110124;28;20195;-67
2021/08/02 10:58:26;;;;;;;1.93;1.83;;;28.00;99.00;;;;;;5111525;27;20941;-67
2021/08/02 11:01:00;;;;;;;1.60;1.50;;;28.00;99.90;;;;;;5101778;28;20443;-67
2021/08/02 11:03:30;;;;;;;1.70;1.60;;;28.00;96.80;;;;;;5101473;28;20485;-66
2021/08/02 11:05:58;;;;;;;1.73;1.63;;;28.10;98.20;;;;;;5092718;28;20468;-70
2021/08/02 11:08:24;;;;;;;1.70;1.60;;;28.10;99.70;;;;;;5092550;28;20529;-67
2021/08/02 11:10:50;;;;;;;4.00;2.13;;;28.10;97.60;;;;;;5102001;28;20471;-65
2021/08/02 11:13:26;;;;;;;1.77;1.57;;;28.10;99.90;;;;;;5100424;28;20180;-64
2021/08/02 11:15:52;;;;;;;1.60;1.50;;;28.10;99.90;;;;;;5101797;28;21003;-64
2021/08/02 11:18:26;;;;;;;1.77;1.67;;;28.10;99.90;;;;;;5105511;28;20423;-65
2021/08/02 11:20:52;;;;;;;2.07;1.87;;;28.10;97.10;;;;;;5098640;28;20445;-66
2021/08/02 11:23:18;;;;;;;1.53;1.43;;;28.10;97.10;;;;;;5088498;28;20490;-71
2021/08/02 11:25:44;;;;;;;1.53;1.43;;;28.10;96.60;;;;;;5087587;28;20441;-71
2021/08/02 11:28:09;;;;;;;1.57;1.47;;;28.20;96.50;;;;;;5098514;28;20247;-66
2021/08/02 11:30:35;;;;;;;1.77;1.67;;;28.20;98.60;;;;;;5110039;27;20213;-67
2021/08/02 11:33:01;;;;;;;3.33;3.13;;;28.20;97.40;;;;;;5088487;28;20628;-66
2021/08/02 11:35:34;;;;;;;2.23;2.03;;;28.20;97.30;;;;;;5091071;28;20496;-64
2021/08/02 11:38:00;;;;;;;1.93;1.63;;;28.20;97.90;;;;;;5090602;28;20618;-64
2021/08/02 11:40:33;;;;;;;1.67;1.57;;;28.20;96.80;;;;;;5092990;28;20485;-65
2021/08/02 11:43:03;;;;;;;1.50;1.40;;;28.20;98.60;;;;;;5115603;27;20187;-65
2021/08/02 11:45:29;;;;;;;2.20;1.60;;;28.20;99.50;;;;;;5091534;28;20452;-70
2021/08/02 11:47:58;;;;;;;1.60;1.50;;;28.30;96.20;;;;;;5117753;27;20759;-65
2021/08/02 11:50:24;;;;;;;1.70;1.60;;;28.30;97.00;;;;;;5090567;28;20800;-71
2021/08/02 11:52:58;;;;;;;1.40;1.30;;;28.30;96.00;;;;;;5088038;28;20824;-72
2021/08/02 11:55:23;;;;;;;1.60;1.50;;;28.40;98.20;;;;;;5096394;28;20492;-65
2021/08/02 11:58:00;;;;;;;1.50;1.40;;;28.40;99.10;;;;;;5090402;28;20424;-66
2021/08/02 12:00:26;;;;;;;3.27;1.50;;;28.40;95.80;;;;;;5097758;28;20225;-72
2021/08/02 12:02:52;;;;;;;1.77;1.67;;;28.40;95.40;;;;;;5094529;28;20414;-71
2021/08/02 12:05:29;;;;;;;1.83;1.73;;;28.40;98.50;;;;;;5089688;28;20511;-72
2021/08/02 12:07:56;;;;;;;1.97;1.80;;;28.50;98.90;;;;;;5083733;28;20970;-70
2021/08/02 12:10:23;;;;;;;1.70;1.60;;;28.50;97.30;;;;;;5087817;28;20954;-66
2021/08/02 12:13:05;;;;;;;3.63;1.77;;;28.50;96.10;;;;;;5094116;28;20460;-65
2021/08/02 12:15:33;;;;;;;1.90;1.80;;;28.60;98.00;;;;;;5091688;28;20504;-70
2021/08/02 12:17:58;;;;;;;1.67;1.57;;;28.60;97.70;;;;;;5092396;28;20441;-65
2021/08/02 12:20:35;;;;;;;1.73;1.63;;;28.60;95.50;;;;;;5091037;28;20447;-65
2021/08/02 12:23:05;;;;;;;1.60;1.20;;;28.70;96.50;;;;;;5104121;28;20538;-72
2021/08/02 12:25:36;;;;;;;1.70;1.60;;;28.70;97.70;;;;;;5086158;28;20969;-72
2021/08/02 12:28:06;;;;;;;1.60;1.50;;;28.70;98.50;;;;;;5097731;28;20440;-67
2021/08/02 12:30:31;;;;;;;1.77;1.67;;;28.70;96.70;;;;;;5087588;28;21052;-67
2021/08/02 12:32:57;;;;;;;1.67;1.57;;;28.70;98.30;;;;;;5091462;28;20447;-69
2021/08/02 12:35:22;;;;;;;1.87;1.77;;;28.70;99.00;;;;;;5087139;28;20612;-71
2021/08/02 12:37:48;;;;;;;1.43;1.30;;;28.70;98.90;;;;;;5094716;28;20220;-68
2021/08/02 12:40:16;;;;;;;2.00;1.80;;;28.70;98.80;;;;;;5094484;28;20300;-71
2021/08/02 12:42:51;;;;;;;1.70;1.60;;;28.70;96.60;;;;;;5085456;28;20393;-66
2021/08/02 12:45:18;;;;;;;1.73;1.63;;;28.70;95.00;;;;;;5086734;28;20558;-67
2021/08/02 12:47:44;;;;;;;2.43;2.00;;;28.70;96.20;;;;;;5084388;28;20453;-71
2021/08/02 12:50:12;;;;;;;2.20;2.00;;;28.70;97.10;;;;;;5094041;28;20484;-71
2021/08/02 12:52:38;;;;;;;1.77;1.67;;;28.70;98.00;;;;;;5083817;28;20516;-66
2021/08/02 12:55:06;;;;;;;1.50;1.40;;;28.70;98.20;;;;;;5091012;28;20567;-67
2021/08/02 12:57:34;;;;;;;1.83;1.73;;;28.80;93.50;;;;;;5085003;28;20463;-71
2021/08/02 13:00:01;;;;;;;1.90;1.50;;;28.80;94.90;;;;;;5090223;28;20463;-67
2021/08/02 13:02:27;;;;;;;1.70;1.60;;;28.80;97.60;;;;;;5090848;28;20459;-67